Portada
METAR-TAF:

METAR-TAF

Aeroports :

Gove Peninsula, Austràlia

latitud: 12-16-12S, longitud: 136-49-06E, altitud: 62 m

Observació

L'informe es va fer fa 17 minuts, a les 09:00 UTC
Vent 6 kt del Sud-Est
Temperatura 29°C
Humitat 70%
Pressió 1012 hPa
Visibilitat 10 km o més
Núvols disperses a una alçada de 2900 ft

METAR: YPGV 280900Z AUTO 13006KT 9999 // SCT029 29/23 Q1012 RF00.0/000.0

Hora: 18:47 (09:17 UTC)

Pronòstic

L'informe es va fer fa 2 hores i 51 minuts, a les 06:26 UTC
Pronòstic vàlid del 28 a les 08 UTC al 28 a les 20 UTC
Vent 8 kt del Est/Sud-Est
Visibilitat 10 km o més
Núvols disperses a una alçada de 2500 ft

TAF: YPGV 280626Z 2808/2820 12008KT 9999 SCT025

Observacions i pronòstics meteorològics de més de 4000 aeroports (METAR i TAF).

Les estacions disponibles són els punts grocs i vermells al mapa.

Posi el ratolí al punt desitjat per veure el nom de l'estació.

Feu clic per veure les observacions i els pronòstics meteorològics.

Per canviar el mapa: feu clic els botons verds amb una creu de color negre per apropar; al botó verd amb un guió per allunyar la imatge; o en les fletxes verdes per a mapes adjacents.


METAR-TAF: